Time;durP1;ratioP1;P1;durP2;ratioP2;P2;SDS_P1;SDS_P2;PMS_P1;PMS_P2;Temp;Humidity;BMP_temperature;BMP_pressure;BME280_temperature;BME280_humidity;BME280_pressure;Samples;Min_cycle;Max_cycle;Signal;HPM_P1;HPM_P2
2023/06/28 00:03:10;;;;;;;0.00;0.00;;;;;;;22.78;100.00;101901.06;10403081;28;20416;-81
2023/06/28 00:08:12;;;;;;;0.05;0.00;;;;;;;22.84;100.00;101910.63;10420736;28;20052;-82
2023/06/28 00:13:14;;;;;;;0.00;0.00;;;;;;;22.66;100.00;101907.28;10419254;28;20044;-82
2023/06/28 00:18:16;;;;;;;0.00;0.00;;;;;;;22.42;100.00;101903.97;10418715;28;20488;-82
2023/06/28 00:23:17;;;;;;;0.00;0.00;;;;;;;22.93;100.00;101902.66;10418140;28;20116;-81
2023/06/28 00:28:19;;;;;;;3.70;0.13;;;;;;;22.41;100.00;101902.22;10435165;28;20136;-82
2023/06/28 00:33:20;;;;;;;0.00;0.00;;;;;;;22.42;100.00;101909.22;10418413;28;20041;-81
2023/06/28 00:38:22;;;;;;;0.00;0.00;;;;;;;22.29;100.00;101915.44;10418334;28;20053;-82
2023/06/28 00:43:24;;;;;;;0.00;0.00;;;;;;;21.94;100.00;101921.75;10418132;28;20041;-82
2023/06/28 00:48:26;;;;;;;0.20;0.20;;;;;;;21.71;100.00;101917.47;10401662;28;20421;-82
2023/06/28 00:53:27;;;;;;;0.00;0.00;;;;;;;22.31;100.00;101913.63;10401279;28;20052;-82
2023/06/28 00:58:29;;;;;;;0.00;0.00;;;;;;;22.05;100.00;101909.44;10417351;28;20145;-81
2023/06/28 01:03:31;;;;;;;0.10;0.10;;;;;;;22.60;100.00;101899.47;10433922;28;20083;-81
2023/06/28 01:08:34;;;;;;;0.00;0.00;;;;;;;22.61;100.00;101904.69;10433935;28;20079;-82
2023/06/28 01:13:38;;;;;;;0.00;0.00;;;;;;;22.42;100.00;101913.59;10416696;28;20039;-82
2023/06/28 01:18:40;;;;;;;0.00;0.00;;;;;;;21.95;100.00;101923.50;10416437;28;20397;-82
2023/06/28 01:23:41;;;;;;;0.00;0.00;;;;;;;22.08;100.00;101917.28;10416560;28;20564;-82
2023/06/28 01:28:44;;;;;;;0.30;0.10;;;;;;;21.79;100.00;101923.56;10417445;28;20065;-82
2023/06/28 01:33:48;;;;;;;0.00;0.00;;;;;;;21.95;100.00;101918.25;10431511;28;20041;-82
2023/06/28 01:38:51;;;;;;;0.15;0.13;;;;;;;22.11;100.00;101919.91;10416921;28;20072;-82
2023/06/28 01:43:53;;;;;;;0.00;0.00;;;;;;;21.83;100.00;101919.16;10415760;28;20055;-82
2023/06/28 01:48:57;;;;;;;0.08;0.08;;;;;;;22.08;100.00;101924.28;10415436;28;20069;-82
2023/06/28 01:54:01;;;;;;;0.00;0.00;;;;;;;21.83;100.00;101924.41;10415348;28;20049;-82
2023/06/28 01:59:03;;;;;;;0.00;0.00;;;;;;;21.46;100.00;101928.06;10415051;28;20128;-82
2023/06/28 02:04:04;;;;;;;0.20;0.00;;;;;;;21.86;100.00;101927.91;10431529;28;20136;-82
2023/06/28 02:09:06;;;;;;;0.70;0.30;;;;;;;22.00;100.00;101924.34;10431231;28;20041;-82
2023/06/28 02:14:08;;;;;;;0.10;0.10;;;;;;;22.08;100.00;101919.03;10414813;28;20044;-82
2023/06/28 02:19:15;;;;;;;0.00;0.00;;;;;;;21.95;100.00;101915.63;10422575;28;20407;-82
2023/06/28 02:24:17;;;;;;;0.22;0.10;;;;;;;21.59;100.00;101909.69;10373702;28;20046;-82
2023/06/28 02:29:20;;;;;;;0.35;0.03;;;;;;;22.50;100.00;101896.91;10428347;28;20045;-82
2023/06/28 02:34:23;;;;;;;0.00;0.00;;;;;;;21.78;100.00;101903.44;10430645;28;20049;-82
2023/06/28 02:39:28;;;;;;;0.00;0.00;;;;;;;22.18;100.00;101894.50;10413814;28;20069;-82
2023/06/28 02:44:30;;;;;;;0.00;0.00;;;;;;;22.38;100.00;101889.09;10429866;28;20053;-81
2023/06/28 02:49:31;;;;;;;0.05;0.05;;;;;;;22.05;100.00;101895.44;10413646;28;20482;-82
2023/06/28 02:54:33;;;;;;;0.00;0.00;;;;;;;22.68;100.00;101887.13;10413782;28;20041;-82
2023/06/28 02:59:35;;;;;;;0.00;0.00;;;;;;;22.44;100.00;101886.47;10413569;28;20053;-82
2023/06/28 03:04:39;;;;;;;0.03;0.03;;;;;;;22.55;100.00;101893.38;10409917;28;20431;-82
2023/06/28 03:09:43;;;;;;;0.00;0.00;;;;;;;22.23;100.00;101897.09;10412131;28;20037;-82
2023/06/28 03:14:45;;;;;;;0.00;0.00;;;;;;;22.25;100.00;101887.44;10397086;28;20060;-82
2023/06/28 03:19:47;;;;;;;0.00;0.00;;;;;;;23.06;100.00;101885.88;10413415;28;20044;-82
2023/06/28 03:24:48;;;;;;;0.00;0.00;;;;;;;22.58;100.00;101880.22;10396895;28;20059;-81
2023/06/28 03:29:50;;;;;;;0.00;0.00;;;;;;;22.72;100.00;101880.97;10396785;28;20085;-82
2023/06/28 03:34:52;;;;;;;0.00;0.00;;;;;;;22.73;100.00;101889.69;10429488;28;20046;-82
2023/06/28 03:39:53;;;;;;;0.00;0.00;;;;;;;22.64;100.00;101885.41;10412343;28;20046;-82
2023/06/28 03:44:55;;;;;;;0.00;0.00;;;;;;;22.53;100.00;101882.00;10412046;28;20405;-83
2023/06/28 03:49:57;;;;;;;0.00;0.00;;;;;;;22.58;100.00;101872.34;10395234;28;20084;-82
2023/06/28 03:54:59;;;;;;;0.75;0.08;;;;;;;22.23;100.00;101876.09;10411416;28;20455;-82
2023/06/28 04:00:06;;;;;;;0.00;0.00;;;;;;;21.87;100.00;101884.19;10418575;28;20042;-82
2023/06/28 04:05:13;;;;;;;0.08;0.03;;;;;;;21.65;100.00;101886.94;10418449;28;20073;-82
2023/06/28 04:10:14;;;;;;;0.25;0.08;;;;;;;21.58;100.00;101882.59;10434480;28;20042;-82
2023/06/28 04:15:16;;;;;;;0.10;0.10;;;;;;;21.67;100.00;101884.28;10410750;28;20081;-82
2023/06/28 04:20:18;;;;;;;0.63;0.45;;;;;;;21.75;100.00;101884.25;10401691;28;20041;-82
2023/06/28 04:25:20;;;;;;;0.00;0.00;;;;;;;22.26;100.00;101881.31;10433775;28;20048;-82
2023/06/28 04:30:22;;;;;;;0.08;0.08;;;;;;;22.03;100.00;101884.97;10413715;28;20043;-82
2023/06/28 04:35:24;;;;;;;0.30;0.20;;;;;;;22.11;100.00;101891.03;10416601;28;20046;-82
2023/06/28 04:40:26;;;;;;;0.15;0.05;;;;;;;21.81;100.00;101892.97;10432726;28;20050;-82
2023/06/28 04:45:36;;;;;;;0.22;0.20;;;;;;;21.79;100.00;101886.84;10400254;28;20085;-82
2023/06/28 04:50:38;;;;;;;0.75;0.40;;;;;;;21.98;100.00;101885.00;10416711;28;20131;-83
2023/06/28 04:55:43;;;;;;;0.43;0.32;;;;;;;21.89;100.00;101882.44;10415210;28;20166;-82
2023/06/28 05:00:45;;;;;;;0.38;0.10;;;;;;;22.23;100.00;101890.09;10396153;28;20484;-82
2023/06/28 05:05:47;;;;;;;0.47;0.22;;;;;;;22.25;100.00;101890.94;10424348;28;20100;-83
2023/06/28 05:10:49;;;;;;;0.08;0.00;;;;;;;22.01;100.00;101887.59;10430331;28;20141;-83
2023/06/28 05:15:51;;;;;;;0.20;0.20;;;;;;;22.02;100.00;101884.09;10412450;28;20061;-83
2023/06/28 05:20:53;;;;;;;0.20;0.08;;;;;;;21.73;100.00;101886.88;10406727;28;20045;-83
2023/06/28 05:25:55;;;;;;;0.00;0.00;;;;;;;21.49;100.00;101887.84;10413003;28;20049;-83
2023/06/28 05:30:56;;;;;;;0.35;0.10;;;;;;;21.69;100.00;101885.16;10413265;28;20042;-83
2023/06/28 05:35:58;;;;;;;0.03;0.03;;;;;;;21.79;100.00;101886.84;10413508;28;20042;-84
2023/06/28 05:41:14;;;;;;;1.02;0.60;;;;;;;21.49;100.00;101883.44;10402138;28;20034;-84
2023/06/28 05:46:16;;;;;;;0.10;0.10;;;;;;;21.55;100.00;101872.97;10406911;28;20037;-85
2023/06/28 05:51:18;;;;;;;0.40;0.10;;;;;;;21.90;100.00;101872.81;10396629;28;20136;-86
2023/06/28 05:56:19;;;;;;;0.00;0.00;;;;;;;21.62;100.00;101883.44;10396559;28;20079;-86
2023/06/28 06:01:21;;;;;;;0.03;0.03;;;;;;;21.13;100.00;101873.97;10412239;28;20448;-88
2023/06/28 06:06:23;;;;;;;0.35;0.35;;;;;;;21.36;100.00;101871.28;10411704;28;20049;-87
2023/06/28 06:11:25;;;;;;;0.20;0.20;;;;;;;21.16;100.00;101866.09;10411662;28;20117;-87
2023/06/28 06:16:26;;;;;;;0.30;0.30;;;;;;;20.81;100.00;101878.41;10407208;28;20049;-87
2023/06/28 06:21:28;;;;;;;0.17;0.15;;;;;;;21.51;100.00;101871.22;10426127;28;20483;-88
2023/06/28 06:26:30;;;;;;;0.13;0.13;;;;;;;21.26;100.00;101869.59;10402419;28;20049;-88
2023/06/28 06:31:32;;;;;;;0.10;0.10;;;;;;;21.09;100.00;101867.88;10410155;28;20052;-87
2023/06/28 06:36:36;;;;;;;0.08;0.00;;;;;;;21.37;100.00;101867.78;10425473;28;20056;-87
2023/06/28 06:41:38;;;;;;;0.00;0.00;;;;;;;21.34;100.00;101868.66;10406760;28;20046;-86
2023/06/28 06:46:40;;;;;;;2.85;0.30;;;;;;;21.27;100.00;101871.31;10406708;28;20041;-85
2023/06/28 06:51:42;;;;;;;0.57;0.30;;;;;;;21.40;100.00;101873.03;10402499;28;20076;-86
2023/06/28 06:56:44;;;;;;;0.20;0.17;;;;;;;21.99;100.00;101873.63;10407360;28;20049;-85
2023/06/28 07:01:46;;;;;;;0.25;0.13;;;;;;;21.63;100.00;101879.97;10424190;28;20042;-84
2023/06/28 07:06:48;;;;;;;0.30;0.20;;;;;;;22.62;100.00;101864.44;10401819;28;20046;-87
2023/06/28 07:11:50;;;;;;;0.05;0.05;;;;;;;22.27;100.00;101875.19;10409125;28;20072;-83
2023/06/28 07:16:51;;;;;;;0.20;0.10;;;;;;;22.43;100.00;101868.97;10392767;28;20114;-84
2023/06/28 07:21:56;;;;;;;0.17;0.10;;;;;;;22.43;100.00;101868.97;10408690;28;20132;-84
2023/06/28 07:26:58;;;;;;;1.10;0.20;;;;;;;22.72;100.00;101875.72;10397907;28;20048;-84
2023/06/28 07:31:59;;;;;;;0.20;0.20;;;;;;;21.55;100.00;101893.06;10411388;28;20416;-86
2023/06/28 07:37:05;;;;;;;0.00;0.00;;;;;;;22.85;100.00;101881.72;10407372;28;20049;-86
2023/06/28 07:42:07;;;;;;;0.30;0.25;;;;;;;22.83;100.00;101888.75;10409536;28;20053;-83
2023/06/28 07:47:09;;;;;;;0.30;0.10;;;;;;;21.95;100.00;101887.66;10404406;28;20050;-84
2023/06/28 07:52:11;;;;;;;0.25;0.17;;;;;;;22.17;100.00;101890.13;10398182;28;20045;-84
2023/06/28 07:57:13;;;;;;;0.85;0.20;;;;;;;22.07;100.00;101896.31;10398258;28;20565;-84
2023/06/28 08:02:14;;;;;;;0.20;0.05;;;;;;;22.33;100.00;101902.28;10397693;28;20052;-84
2023/06/28 08:07:16;;;;;;;0.38;0.38;;;;;;;21.60;100.00;101908.81;10407931;28;20050;-84
2023/06/28 08:12:17;;;;;;;0.45;0.30;;;;;;;22.24;100.00;101898.81;10413738;28;20041;-84
2023/06/28 08:17:20;;;;;;;0.30;0.10;;;;;;;22.36;100.00;101901.38;10413847;28;20448;-82
2023/06/28 08:22:22;;;;;;;1.65;0.75;;;;;;;22.29;100.00;101907.56;10413296;28;20049;-86
2023/06/28 08:27:24;;;;;;;0.22;0.20;;;;;;;22.54;100.00;101900.38;10412722;28;20057;-86
2023/06/28 08:32:26;;;;;;;0.30;0.10;;;;;;;22.17;100.00;101904.13;10430163;28;20047;-86
2023/06/28 08:37:30;;;;;;;0.30;0.15;;;;;;;22.04;100.00;101897.22;10403334;28;20141;-85
2023/06/28 08:42:34;;;;;;;0.45;0.17;;;;;;;22.03;100.00;101900.72;10411470;28;20049;-85
2023/06/28 08:47:38;;;;;;;1.20;0.75;;;;;;;22.02;100.00;101906.81;10412258;28;20073;-86
2023/06/28 08:52:40;;;;;;;0.47;0.40;;;;;;;21.90;100.00;101912.16;10397333;28;20041;-86
2023/06/28 08:57:43;;;;;;;0.50;0.50;;;;;;;22.42;100.00;101892.59;10411094;28;20164;-85
2023/06/28 09:02:45;;;;;;;0.15;0.10;;;;;;;22.15;100.00;101900.63;10408933;28;20135;-85
2023/06/28 09:07:48;;;;;;;0.32;0.32;;;;;;;22.16;100.00;101896.25;10411640;28;20104;-85
2023/06/28 09:12:51;;;;;;;1.08;0.30;;;;;;;22.33;100.00;101904.00;10406604;28;20403;-86
2023/06/28 09:17:53;;;;;;;0.20;0.20;;;;;;;22.53;100.00;101897.75;10406183;28;20499;-88
2023/06/28 09:22:59;;;;;;;0.82;0.30;;;;;;;22.62;100.00;101900.31;10388903;28;20080;-86
2023/06/28 09:28:01;;;;;;;2.05;0.63;;;;;;;22.27;100.00;101914.56;10394789;28;20050;-88
2023/06/28 09:33:22;;;;;;;0.32;0.30;;;;;;;22.76;100.00;101898.44;10404901;28;20492;-85
2023/06/28 09:38:25;;;;;;;0.52;0.20;;;;;;;22.71;100.00;101900.22;10399851;28;20062;-83
2023/06/28 09:43:32;;;;;;;0.57;0.17;;;;;;;23.15;100.00;101895.44;10426325;28;20052;-87
2023/06/28 09:48:36;;;;;;;1.23;0.73;;;;;;;23.01;100.00;101900.81;10410023;28;20075;-88
2023/06/28 09:53:57;;;;;;;0.43;0.40;;;;;;;23.39;100.00;101885.53;10407071;28;20087;-85
2023/06/28 09:59:02;;;;;;;7.97;1.65;;;;;;;23.14;100.00;101894.53;10400939;28;20057;-85
2023/06/28 10:04:07;;;;;;;0.35;0.25;;;;;;;23.77;100.00;101895.56;10393876;28;20037;-86
2023/06/28 10:09:15;;;;;;;0.10;0.10;;;;;;;22.83;100.00;101899.25;10401665;28;20688;-87
2023/06/28 10:14:19;;;;;;;0.65;0.43;;;;;;;23.37;100.00;101898.69;10408516;28;20041;-86
2023/06/28 10:19:21;;;;;;;0.40;0.40;;;;;;;23.48;100.00;101892.47;10392017;28;20633;-87
2023/06/28 10:24:29;;;;;;;0.98;0.43;;;;;;;23.99;100.00;101890.03;10406639;28;20065;-86
2023/06/28 10:29:30;;;;;;;0.45;0.22;;;;;;;22.96;100.00;101898.25;10418414;28;20129;-88
2023/06/28 10:34:34;;;;;;;0.75;0.50;;;;;;;23.32;100.00;101892.63;10404918;28;20376;-87
2023/06/28 10:39:37;;;;;;;0.90;0.70;;;;;;;24.05;100.00;101884.69;10409437;28;20079;-86
2023/06/28 10:44:53;;;;;;;0.20;0.20;;;;;;;24.15;100.00;101879.28;10392718;28;20046;-87
2023/06/28 10:50:08;;;;;;;0.32;0.20;;;;;;;23.52;100.00;101879.25;10405325;28;20049;-88
2023/06/28 10:55:11;;;;;;;0.57;0.50;;;;;;;24.29;100.00;101873.78;10424923;28;20038;-90
2023/06/28 11:00:45;;;;;;;0.75;0.35;;;;;;;24.03;100.00;101869.81;10410886;28;20053;-89
2023/06/28 11:05:56;;;;;;;1.23;0.77;;;;;;;24.80;100.00;101862.41;10414202;28;20052;-88
2023/06/28 11:11:00;;;;;;;0.20;0.20;;;;;;;24.42;100.00;101859.53;10423469;28;20175;-90
2023/06/28 11:16:24;;;;;;;0.98;0.63;;;;;;;25.40;100.00;101863.03;10421950;28;20510;-90
2023/06/28 11:21:26;;;;;;;1.88;1.10;;;;;;;24.54;100.00;101855.78;10414484;28;20080;-90
2023/06/28 11:26:33;;;;;;;0.57;0.52;;;;;;;24.47;100.00;101855.06;10401452;28;20073;-88
2023/06/28 11:31:42;;;;;;;0.82;0.50;;;;;;;24.42;100.00;101856.03;10419029;28;20049;-89
2023/06/28 11:36:45;;;;;;;2.17;0.30;;;;;;;24.21;100.00;101858.13;10419680;28;20053;-88
2023/06/28 11:41:47;;;;;;;2.00;1.05;;;;;;;24.99;100.00;101853.25;10421342;28;20154;-88
2023/06/28 11:46:49;;;;;;;0.90;0.50;;;;;;;24.60;100.00;101847.81;10419665;28;20779;-87
2023/06/28 11:51:51;;;;;;;2.15;0.57;;;;;;;25.90;100.00;101846.97;10421283;28;20052;-90
2023/06/28 11:56:53;;;;;;;0.65;0.10;;;;;;;24.61;100.00;101851.31;10421514;28;20140;-88
2023/06/28 12:02:04;;;;;;;0.32;0.30;;;;;;;24.61;100.00;101854.78;10421453;28;20400;-88
2023/06/28 12:07:06;;;;;;;1.00;0.50;;;;;;;24.51;100.00;101845.34;10403001;28;20057;-90
2023/06/28 12:12:08;;;;;;;0.80;0.68;;;;;;;25.74;100.00;101846.44;10395566;28;20093;-87
2023/06/28 12:17:10;;;;;;;0.63;0.22;;;;;;;24.75;100.00;101844.03;10418923;28;20049;-89
2023/06/28 12:22:12;;;;;;;0.43;0.40;;;;;;;24.67;100.00;101852.09;10418900;28;20076;-87
2023/06/28 12:27:13;;;;;;;0.57;0.47;;;;;;;24.69;100.00;101846.78;10417984;28;20049;-89
2023/06/28 12:32:15;;;;;;;0.40;0.40;;;;;;;26.29;100.00;101845.16;10419206;28;20072;-87
2023/06/28 12:37:33;;;;;;;0.85;0.57;;;;;;;26.47;100.00;101832.38;10419072;28;20045;-87
2023/06/28 12:42:35;;;;;;;1.75;0.50;;;;;;;25.26;100.00;101845.69;10413959;28;20488;-87
2023/06/28 12:47:36;;;;;;;0.75;0.70;;;;;;;25.49;100.00;101842.59;10417114;28;20085;-88
2023/06/28 12:52:38;;;;;;;0.50;0.50;;;;;;;26.19;100.00;101833.06;10416490;28;20480;-86
2023/06/28 12:57:40;;;;;;;0.17;0.17;;;;;;;25.74;100.00;101846.44;10432845;28;20073;-86
2023/06/28 13:02:41;;;;;;;0.65;0.32;;;;;;;25.25;100.00;101849.22;10416098;28;20514;-88
2023/06/28 13:07:43;;;;;;;0.43;0.32;;;;;;;25.95;100.00;101838.00;10400558;28;20506;-88
2023/06/28 13:12:45;;;;;;;0.00;0.00;;;;;;;26.47;100.00;101834.16;10407584;28;20051;-86
2023/06/28 13:17:47;;;;;;;0.55;0.43;;;;;;;26.59;100.00;101832.06;10399852;28;20049;-86
2023/06/28 13:22:48;;;;;;;0.70;0.40;;;;;;;27.22;100.00;101832.06;10394339;28;20046;-86
2023/06/28 13:27:52;;;;;;;1.60;0.85;;;;;;;27.14;100.00;101823.53;10413248;28;20049;-84
2023/06/28 13:32:56;;;;;;;2.00;0.93;;;;;;;26.94;100.00;101820.56;10415619;28;20033;-84
2023/06/28 13:37:58;;;;;;;1.17;0.55;;;;;;;28.15;100.00;101808.06;10415695;28;20458;-83
2023/06/28 13:43:04;;;;;;;0.75;0.75;;;;;;;26.74;100.00;101814.91;10415116;28;20059;-84
2023/06/28 13:48:07;;;;;;;0.88;0.65;;;;;;;27.14;100.00;101815.59;10432042;28;20052;-84
2023/06/28 13:53:09;;;;;;;0.52;0.35;;;;;;;26.76;100.00;101814.91;10416925;28;20525;-84
2023/06/28 13:58:12;;;;;;;0.30;0.22;;;;;;;27.37;100.00;101811.38;10397839;28;20069;-84
2023/06/28 14:03:41;;;;;;;0.43;0.40;;;;;;;27.90;100.00;101804.47;10414685;28;20045;-84
2023/06/28 14:08:42;;;;;;;3.17;0.47;;;;;;;27.38;100.00;101797.22;10397775;28;20136;-84
2023/06/28 14:13:44;;;;;;;0.45;0.38;;;;;;;27.36;100.00;101807.88;10397840;28;20054;-84
2023/06/28 14:18:46;;;;;;;1.73;1.00;;;;;;;28.33;100.00;101795.97;10414315;28;20049;-84
2023/06/28 14:23:47;;;;;;;0.57;0.50;;;;;;;28.16;100.00;101799.19;10405846;28;20511;-86
2023/06/28 14:28:49;;;;;;;0.65;0.55;;;;;;;27.78;100.00;101798.66;10413801;28;20080;-87
2023/06/28 14:33:51;;;;;;;0.75;0.57;;;;;;;27.80;100.00;101786.25;10413827;28;20411;-87
2023/06/28 14:38:52;;;;;;;1.25;0.70;;;;;;;27.79;100.00;101789.81;10413025;28;20049;-85
2023/06/28 14:43:54;;;;;;;0.75;0.50;;;;;;;28.25;100.00;101781.25;10413396;28;20124;-84
2023/06/28 14:48:58;;;;;;;0.73;0.73;;;;;;;28.75;100.00;101775.97;10413721;28;20049;-85
2023/06/28 14:53:59;;;;;;;0.75;0.40;;;;;;;28.26;100.00;101770.59;10422707;28;20038;-87
2023/06/28 14:59:01;;;;;;;1.65;0.52;;;;;;;29.31;100.00;101757.09;10429321;28;20045;-85
2023/06/28 15:04:03;;;;;;;1.17;0.30;;;;;;;29.24;100.00;101746.69;10413178;28;20051;-86
2023/06/28 15:09:06;;;;;;;0.40;0.40;;;;;;;29.05;100.00;101740.34;10404847;28;20159;-85
2023/06/28 15:14:08;;;;;;;0.25;0.25;;;;;;;29.28;100.00;101750.09;10429456;28;20099;-85
2023/06/28 15:19:10;;;;;;;0.38;0.28;;;;;;;29.10;100.00;101749.88;10396471;28;20041;-84
2023/06/28 15:24:11;;;;;;;0.52;0.32;;;;;;;29.22;100.00;101737.06;10412844;28;20042;-86
2023/06/28 15:29:13;;;;;;;1.23;0.73;;;;;;;29.48;100.00;101725.44;10412904;28;20049;-86
2023/06/28 15:34:15;;;;;;;0.90;0.70;;;;;;;28.87;100.00;101731.31;10396202;28;20050;-86
2023/06/28 15:39:17;;;;;;;0.40;0.32;;;;;;;29.32;100.00;101727.81;10419824;28;20445;-87
2023/06/28 15:44:19;;;;;;;1.08;0.50;;;;;;;29.70;100.00;101727.19;10412588;28;20072;-86
2023/06/28 15:49:23;;;;;;;0.30;0.30;;;;;;;28.64;100.00;101740.97;10396452;28;20050;-86
2023/06/28 15:54:25;;;;;;;0.35;0.35;;;;;;;29.06;100.00;101735.00;10419657;28;20108;-87
2023/06/28 15:59:26;;;;;;;0.30;0.30;;;;;;;28.55;100.00;101738.69;10419854;28;20079;-87
2023/06/28 16:04:28;;;;;;;0.35;0.20;;;;;;;28.14;100.00;101736.59;10418848;28;20069;-85
2023/06/28 16:09:30;;;;;;;0.20;0.20;;;;;;;27.75;100.00;101724.63;10390939;28;20476;-85
2023/06/28 16:14:32;;;;;;;1.70;1.00;;;;;;;28.31;100.00;101725.41;10425355;28;20116;-85
2023/06/28 16:19:33;;;;;;;0.55;0.55;;;;;;;28.33;100.00;101731.53;10397068;28;20495;-85
2023/06/28 16:24:35;;;;;;;0.98;0.55;;;;;;;28.61;100.00;101722.56;10422169;28;20077;-85
2023/06/28 16:29:37;;;;;;;4.45;0.95;;;;;;;28.79;100.00;101721.88;10421502;28;20045;-85
2023/06/28 16:34:40;;;;;;;0.52;0.47;;;;;;;28.31;100.00;101725.41;10400271;28;20047;-84
2023/06/28 16:39:42;;;;;;;0.35;0.30;;;;;;;28.56;100.00;101719.22;10401009;28;20091;-85
2023/06/28 16:44:47;;;;;;;0.77;0.50;;;;;;;28.38;100.00;101716.31;10417158;28;20049;-86
2023/06/28 16:49:49;;;;;;;0.40;0.30;;;;;;;29.04;100.00;101715.63;10396575;28;20055;-84
2023/06/28 16:54:51;;;;;;;0.55;0.55;;;;;;;29.03;100.00;101710.41;10426629;28;20527;-84
2023/06/28 16:59:53;;;;;;;0.22;0.20;;;;;;;29.30;100.00;101708.44;10427974;28;20069;-84
2023/06/28 17:04:54;;;;;;;0.38;0.38;;;;;;;28.70;100.00;101709.00;10422082;28;20492;-84
2023/06/28 17:09:56;;;;;;;0.75;0.30;;;;;;;29.02;100.00;101714.81;10394195;28;20059;-85
2023/06/28 17:14:58;;;;;;;0.00;0.00;;;;;;;29.90;100.00;101723.66;10414621;28;20040;-84
2023/06/28 17:19:59;;;;;;;0.20;0.20;;;;;;;29.72;100.00;101715.56;10413716;28;20056;-83
2023/06/28 17:25:02;;;;;;;0.25;0.22;;;;;;;29.01;100.00;101739.63;10414924;28;20129;-82
2023/06/28 17:30:05;;;;;;;0.25;0.10;;;;;;;29.49;100.00;101728.94;10413722;28;20049;-82
2023/06/28 17:35:07;;;;;;;0.22;0.15;;;;;;;28.83;100.00;101735.03;10426974;28;20056;-82
2023/06/28 17:40:09;;;;;;;1.17;0.52;;;;;;;28.59;100.00;101732.34;10403647;28;20059;-82
2023/06/28 17:45:10;;;;;;;0.10;0.10;;;;;;;29.08;100.00;101729.63;10412697;28;20100;-82
2023/06/28 17:50:12;;;;;;;0.10;0.10;;;;;;;29.10;100.00;101733.97;10412273;28;20434;-82
2023/06/28 17:55:14;;;;;;;0.32;0.32;;;;;;;28.34;100.00;101739.41;10428258;28;20151;-81
2023/06/28 18:00:16;;;;;;;0.30;0.10;;;;;;;29.16;100.00;101737.28;10411888;28;20153;-82
2023/06/28 18:05:18;;;;;;;0.05;0.05;;;;;;;28.73;100.00;101743.31;10412819;28;20049;-82
2023/06/28 18:10:19;;;;;;;0.00;0.00;;;;;;;28.88;100.00;101746.31;10417817;28;20463;-82
2023/06/28 18:15:27;;;;;;;0.68;0.65;;;;;;;29.65;100.00;101740.66;10411091;28;20038;-82
2023/06/28 18:20:28;;;;;;;0.10;0.08;;;;;;;28.84;100.00;101747.38;10411312;28;20527;-82
2023/06/28 18:25:30;;;;;;;0.20;0.10;;;;;;;28.27;100.00;101748.50;10428484;28;20056;-82
2023/06/28 18:30:35;;;;;;;1.33;0.38;;;;;;;28.96;100.00;101746.91;10411144;28;20136;-82
2023/06/28 18:35:36;;;;;;;0.00;0.00;;;;;;;28.67;100.00;101746.19;10411109;28;20064;-82
2023/06/28 18:40:38;;;;;;;0.10;0.10;;;;;;;28.75;100.00;101743.25;10407098;28;20054;-82
2023/06/28 18:45:42;;;;;;;0.13;0.13;;;;;;;28.89;100.00;101742.75;10410451;28;20037;-82
2023/06/28 18:50:45;;;;;;;0.22;0.20;;;;;;;28.35;100.00;101737.59;10411324;28;20043;-82
2023/06/28 18:55:47;;;;;;;0.00;0.00;;;;;;;27.82;100.00;101726.13;10407667;28;20061;-82
2023/06/28 19:00:49;;;;;;;0.13;0.13;;;;;;;27.69;100.00;101727.47;10407754;28;20050;-85
2023/06/28 19:05:51;;;;;;;1.45;0.52;;;;;;;27.11;100.00;101731.03;10409132;28;20049;-85
2023/06/28 19:10:54;;;;;;;0.65;0.60;;;;;;;27.43;100.00;101738.91;10392975;28;20053;-85
2023/06/28 19:15:55;;;;;;;0.75;0.55;;;;;;;27.55;100.00;101720.88;10408860;28;20050;-82
2023/06/28 19:20:57;;;;;;;0.55;0.28;;;;;;;27.03;100.00;101727.75;10398781;28;20053;-82
2023/06/28 19:25:59;;;;;;;0.25;0.25;;;;;;;27.38;100.00;101725.78;10411164;28;20052;-82
2023/06/28 19:31:01;;;;;;;1.02;0.60;;;;;;;26.84;100.00;101730.97;10433031;28;20049;-82
2023/06/28 19:36:03;;;;;;;0.90;0.22;;;;;;;28.25;100.00;101725.63;10400369;28;20049;-84
2023/06/28 19:41:05;;;;;;;0.30;0.20;;;;;;;28.49;100.00;101735.31;10399472;28;20049;-84
2023/06/28 19:46:07;;;;;;;0.22;0.15;;;;;;;28.03;100.00;101740.44;10431829;28;20403;-84
2023/06/28 19:51:08;;;;;;;0.10;0.10;;;;;;;28.12;100.00;101741.94;10408173;28;20056;-84
2023/06/28 19:56:12;;;;;;;0.10;0.00;;;;;;;28.74;100.00;101730.94;10399611;28;20041;-84
2023/06/28 20:01:14;;;;;;;0.20;0.20;;;;;;;28.30;100.00;101734.25;10402134;28;20510;-84
2023/06/28 20:06:16;;;;;;;2.17;0.63;;;;;;;28.53;100.00;101733.41;10415401;28;20534;-84
2023/06/28 20:11:17;;;;;;;0.65;0.43;;;;;;;29.18;100.00;101730.13;10402432;28;20136;-84
2023/06/28 20:16:19;;;;;;;0.40;0.25;;;;;;;28.27;100.00;101735.25;10415158;28;20453;-84
2023/06/28 20:21:21;;;;;;;0.00;0.00;;;;;;;28.77;100.00;101736.13;10415109;28;20065;-84
2023/06/28 20:26:23;;;;;;;0.00;0.00;;;;;;;28.24;100.00;101730.03;10431210;28;20045;-84
2023/06/28 20:31:25;;;;;;;0.10;0.10;;;;;;;28.04;100.00;101733.34;10406128;28;20538;-84
2023/06/28 20:36:27;;;;;;;0.00;0.00;;;;;;;28.14;100.00;101745.41;10413955;28;20451;-84
2023/06/28 20:41:30;;;;;;;0.65;0.25;;;;;;;27.92;100.00;101741.72;10407477;28;20058;-84
2023/06/28 20:46:32;;;;;;;0.00;0.00;;;;;;;28.20;100.00;101741.69;10430623;28;20067;-84
2023/06/28 20:51:34;;;;;;;0.30;0.20;;;;;;;27.37;100.00;101745.22;10392735;28;20053;-84
2023/06/28 20:56:36;;;;;;;0.22;0.20;;;;;;;27.47;100.00;101740.56;10397531;28;20048;-84
2023/06/28 21:01:37;;;;;;;0.55;0.32;;;;;;;27.76;100.00;101742.25;10409882;28;20124;-86
2023/06/28 21:06:39;;;;;;;0.10;0.10;;;;;;;27.95;100.00;101741.63;10423011;28;20052;-84
2023/06/28 21:11:41;;;;;;;0.55;0.40;;;;;;;28.15;100.00;101733.88;10400221;28;20084;-85
2023/06/28 21:16:43;;;;;;;1.75;0.38;;;;;;;28.57;100.00;101734.16;10415799;28;20048;-85
2023/06/28 21:21:45;;;;;;;0.40;0.25;;;;;;;27.90;100.00;101732.97;10415413;28;20053;-85
2023/06/28 21:26:47;;;;;;;0.15;0.15;;;;;;;28.11;100.00;101742.84;10424482;28;20247;-85
2023/06/28 21:31:49;;;;;;;1.55;0.40;;;;;;;28.12;100.00;101728.69;10415055;28;20041;-85
2023/06/28 21:36:51;;;;;;;0.00;0.00;;;;;;;27.68;100.00;101729.28;10414198;28;20128;-85
2023/06/28 21:41:52;;;;;;;0.10;0.10;;;;;;;28.32;100.00;101724.50;10415727;28;20045;-85
2023/06/28 21:46:54;;;;;;;0.30;0.30;;;;;;;28.01;100.00;101726.38;10431869;28;20037;-85
2023/06/28 21:51:56;;;;;;;0.13;0.10;;;;;;;27.34;100.00;101721.53;10394265;28;20068;-86
2023/06/28 21:56:58;;;;;;;0.30;0.15;;;;;;;27.35;100.00;101720.63;10407354;28;20669;-87
2023/06/28 22:02:12;;;;;;;1.88;0.35;;;;;;;27.30;100.00;101719.88;10408804;28;20559;-86
2023/06/28 22:07:14;;;;;;;0.22;0.20;;;;;;;28.03;100.00;101718.41;10385704;28;20049;-87
2023/06/28 22:12:16;;;;;;;0.13;0.10;;;;;;;28.36;100.00;101720.78;10410325;28;20754;-86
2023/06/28 22:17:18;;;;;;;1.67;0.55;;;;;;;27.43;100.00;101710.69;10426414;28;20053;-87
2023/06/28 22:22:20;;;;;;;0.10;0.10;;;;;;;27.30;100.00;101709.28;10412077;28;20045;-86
2023/06/28 22:27:21;;;;;;;0.13;0.13;;;;;;;27.31;100.00;101703.09;10394493;28;20572;-87
2023/06/28 22:32:23;;;;;;;0.70;0.08;;;;;;;27.62;100.00;101696.84;10390084;28;20096;-87
2023/06/28 22:37:25;;;;;;;0.32;0.32;;;;;;;27.50;100.00;101703.41;10426435;28;20052;-87
2023/06/28 22:42:26;;;;;;;0.00;0.00;;;;;;;26.95;100.00;101701.56;10391745;28;20431;-87
2023/06/28 22:47:28;;;;;;;0.00;0.00;;;;;;;27.48;100.00;101695.50;10393184;28;20420;-87
2023/06/28 22:52:30;;;;;;;1.08;0.28;;;;;;;27.31;100.00;101689.88;10405327;28;20041;-85
2023/06/28 22:57:32;;;;;;;0.88;0.85;;;;;;;27.53;100.00;101690.06;10392808;28;20050;-86